Time;durP1;ratioP1;P1;durP2;ratioP2;P2;SDS_P1;SDS_P2;PMS_P1;PMS_P2;Temp;Humidity;BMP_temperature;BMP_pressure;BME280_temperature;BME280_humidity;BME280_pressure;Samples;Min_cycle;Max_cycle;Signal;HPM_P1;HPM_P2
2022/03/30 00:02:08;;;;;;;38.55;21.73;;;4.90;99.90;;;;;;5034870;28;20489;-57
2022/03/30 00:04:38;;;;;;;35.25;20.42;;;4.90;99.90;;;;;;5041147;28;20416;-57
2022/03/30 00:07:05;;;;;;;33.60;21.52;;;4.80;99.90;;;;;;5043160;28;20436;-58
2022/03/30 00:09:32;;;;;;;34.08;20.52;;;4.80;99.90;;;;;;5036231;28;20686;-58
2022/03/30 00:11:59;;;;;;;32.95;21.33;;;4.80;99.90;;;;;;5055345;28;20906;-58
2022/03/30 00:14:25;;;;;;;34.60;22.08;;;4.80;99.90;;;;;;5038495;28;20037;-58
2022/03/30 00:16:51;;;;;;;33.55;21.65;;;4.70;99.90;;;;;;5042482;28;20044;-58
2022/03/30 00:19:18;;;;;;;32.10;20.67;;;4.80;99.90;;;;;;5040986;28;20117;-59
2022/03/30 00:21:45;;;;;;;39.03;20.02;;;4.90;99.90;;;;;;5039412;28;20056;-59
2022/03/30 00:24:11;;;;;;;28.75;19.67;;;4.90;99.90;;;;;;5045882;28;20051;-59
2022/03/30 00:26:38;;;;;;;32.50;19.15;;;4.90;99.90;;;;;;5039123;28;20110;-59
2022/03/30 00:29:06;;;;;;;33.20;19.38;;;4.90;99.90;;;;;;5006693;28;20053;-59
2022/03/30 00:31:32;;;;;;;33.30;21.13;;;4.90;99.90;;;;;;5049891;28;20114;-59
2022/03/30 00:33:58;;;;;;;31.83;19.27;;;4.80;99.90;;;;;;5039403;28;20037;-59
2022/03/30 00:36:24;;;;;;;30.50;19.52;;;4.80;99.90;;;;;;5031738;28;20115;-59
2022/03/30 00:38:51;;;;;;;35.80;22.33;;;4.80;99.90;;;;;;5057937;28;20052;-59
2022/03/30 00:41:17;;;;;;;33.28;21.30;;;4.80;99.90;;;;;;5037988;28;20362;-59
2022/03/30 00:43:43;;;;;;;31.88;21.20;;;4.70;99.90;;;;;;5028842;28;20050;-59
2022/03/30 00:46:12;;;;;;;35.25;20.00;;;4.80;99.90;;;;;;5037698;28;20040;-59
2022/03/30 00:48:40;;;;;;;33.92;21.38;;;4.80;99.90;;;;;;5040960;28;20063;-59
2022/03/30 00:51:06;;;;;;;33.05;20.83;;;4.80;99.90;;;;;;5034909;28;20049;-59
2022/03/30 00:53:32;;;;;;;33.38;22.98;;;4.80;99.90;;;;;;5040312;28;20053;-59
2022/03/30 00:55:58;;;;;;;38.40;23.13;;;4.80;99.90;;;;;;5050316;28;20263;-59
2022/03/30 00:58:26;;;;;;;36.30;22.60;;;4.90;99.90;;;;;;5009358;28;20053;-59
2022/03/30 01:00:52;;;;;;;33.38;21.00;;;4.80;99.90;;;;;;5044072;28;20555;-59
2022/03/30 01:03:19;;;;;;;38.58;22.58;;;4.80;99.90;;;;;;5036376;28;20045;-59
2022/03/30 01:05:45;;;;;;;37.95;22.13;;;4.80;99.90;;;;;;5050683;28;20217;-59
2022/03/30 01:08:12;;;;;;;32.05;21.83;;;4.80;99.90;;;;;;5029561;28;20057;-60
2022/03/30 01:10:38;;;;;;;37.00;22.85;;;4.80;99.90;;;;;;5047134;28;20040;-59
2022/03/30 01:13:07;;;;;;;38.45;23.83;;;4.80;99.90;;;;;;5026759;28;20107;-59
2022/03/30 01:15:33;;;;;;;40.03;23.45;;;4.80;99.90;;;;;;5050128;28;20496;-59
2022/03/30 01:18:00;;;;;;;35.58;22.00;;;4.80;99.90;;;;;;5020017;28;20045;-60
2022/03/30 01:20:26;;;;;;;34.17;23.13;;;4.70;99.90;;;;;;5035014;28;20143;-59
2022/03/30 01:22:52;;;;;;;35.47;23.40;;;4.70;99.90;;;;;;5033696;28;20597;-59
2022/03/30 01:25:18;;;;;;;34.63;22.67;;;4.70;99.90;;;;;;5044568;28;20041;-59
2022/03/30 01:27:45;;;;;;;38.17;21.70;;;4.70;99.90;;;;;;5044095;28;20041;-60
2022/03/30 01:33:03;;;;;;;38.05;23.77;;;4.50;99.90;;;;;;5025155;28;20045;-59
2022/03/30 01:35:30;;;;;;;35.17;23.25;;;4.50;99.90;;;;;;5048317;28;20041;-59
2022/03/30 01:37:56;;;;;;;36.13;23.58;;;4.50;99.90;;;;;;5031811;28;20041;-59
2022/03/30 01:40:23;;;;;;;37.10;22.88;;;4.40;99.90;;;;;;5056936;28;20052;-58
2022/03/30 01:42:49;;;;;;;37.88;23.83;;;4.30;99.90;;;;;;5057751;28;20049;-58
2022/03/30 01:45:16;;;;;;;38.08;23.80;;;4.30;99.90;;;;;;5051385;28;20129;-58
2022/03/30 01:47:54;;;;;;;35.42;24.08;;;4.30;99.90;;;;;;5038577;28;20059;-59
2022/03/30 01:50:22;;;;;;;42.38;25.30;;;4.20;99.90;;;;;;5040176;28;20052;-60
2022/03/30 01:52:48;;;;;;;45.40;25.85;;;4.20;99.90;;;;;;5036339;28;20136;-60
2022/03/30 01:55:15;;;;;;;37.90;24.20;;;4.20;99.90;;;;;;5032367;28;20060;-60
2022/03/30 01:57:42;;;;;;;37.63;23.80;;;4.20;99.90;;;;;;5025557;28;20060;-59
2022/03/30 02:00:10;;;;;;;34.10;23.20;;;4.10;99.90;;;;;;5029443;28;20444;-59
2022/03/30 02:02:40;;;;;;;36.80;22.63;;;4.20;99.90;;;;;;5059792;28;20053;-59
2022/03/30 02:05:08;;;;;;;35.15;24.40;;;4.30;99.90;;;;;;5047416;28;20063;-60
2022/03/30 02:07:38;;;;;;;35.33;25.77;;;4.30;99.90;;;;;;5044891;28;20559;-59
2022/03/30 02:10:07;;;;;;;38.72;24.00;;;4.40;99.90;;;;;;5037575;28;20136;-60
2022/03/30 02:12:34;;;;;;;39.08;23.70;;;4.30;99.90;;;;;;5025418;28;20373;-60
2022/03/30 02:15:00;;;;;;;37.33;25.77;;;4.40;99.90;;;;;;5053343;28;20492;-60
2022/03/30 02:17:27;;;;;;;37.58;25.70;;;4.40;99.90;;;;;;5042957;28;20216;-59
2022/03/30 02:19:55;;;;;;;39.67;25.63;;;4.40;99.90;;;;;;5036294;28;20052;-58
2022/03/30 02:22:22;;;;;;;40.47;25.55;;;4.40;99.90;;;;;;5040321;28;20052;-59
2022/03/30 02:24:49;;;;;;;40.55;26.40;;;4.50;99.90;;;;;;5028712;28;20412;-59
2022/03/30 02:27:16;;;;;;;40.60;25.25;;;4.50;99.90;;;;;;5038942;28;20041;-59
2022/03/30 02:29:42;;;;;;;41.10;26.02;;;4.50;99.90;;;;;;5031870;28;20045;-58
2022/03/30 02:32:09;;;;;;;44.33;26.50;;;4.50;99.90;;;;;;5040466;28;20048;-58
2022/03/30 02:34:35;;;;;;;38.85;26.48;;;4.50;99.90;;;;;;5030580;28;20094;-59
2022/03/30 02:37:01;;;;;;;36.00;24.73;;;4.50;99.90;;;;;;5037415;28;20045;-59
2022/03/30 02:39:27;;;;;;;40.72;26.05;;;4.60;99.90;;;;;;5033948;28;20065;-59
2022/03/30 02:41:55;;;;;;;37.08;23.90;;;4.70;99.90;;;;;;5038192;28;20079;-58
2022/03/30 02:44:22;;;;;;;42.13;25.40;;;4.70;99.90;;;;;;5038853;28;20077;-58
2022/03/30 02:46:49;;;;;;;40.58;26.98;;;4.70;99.90;;;;;;5036100;28;20528;-59
2022/03/30 02:49:15;;;;;;;49.35;25.30;;;4.70;99.90;;;;;;5048297;28;20064;-58
2022/03/30 02:51:41;;;;;;;41.95;25.58;;;4.80;99.90;;;;;;5036180;28;20575;-59
2022/03/30 02:54:07;;;;;;;43.40;26.27;;;4.70;99.90;;;;;;5048849;28;20083;-59
2022/03/30 02:56:34;;;;;;;46.90;26.42;;;4.80;99.90;;;;;;5037102;28;20079;-59
2022/03/30 02:59:00;;;;;;;37.55;25.65;;;4.80;99.90;;;;;;5033335;28;20056;-59
2022/03/30 03:01:26;;;;;;;42.58;25.98;;;4.80;99.90;;;;;;5037968;28;20151;-59
2022/03/30 03:03:52;;;;;;;41.97;26.42;;;4.80;99.90;;;;;;5058588;28;20110;-59
2022/03/30 03:06:18;;;;;;;43.70;27.05;;;4.90;99.90;;;;;;5040726;28;20142;-60
2022/03/30 03:08:44;;;;;;;38.90;25.15;;;4.90;99.90;;;;;;5044123;28;20144;-59
2022/03/30 03:11:10;;;;;;;39.47;26.02;;;4.90;99.90;;;;;;5034475;28;20384;-59
2022/03/30 03:13:36;;;;;;;41.65;25.98;;;4.90;99.90;;;;;;5058000;28;20129;-59
2022/03/30 03:16:03;;;;;;;39.38;27.35;;;4.90;99.90;;;;;;5059985;28;20036;-59
2022/03/30 03:18:29;;;;;;;43.83;28.23;;;4.90;99.90;;;;;;5035756;28;20505;-59
2022/03/30 03:20:55;;;;;;;44.70;26.80;;;4.90;99.90;;;;;;5024072;28;20452;-59
2022/03/30 03:23:21;;;;;;;40.00;26.67;;;5.00;99.90;;;;;;5040777;28;20583;-59
2022/03/30 03:25:47;;;;;;;40.00;26.15;;;5.00;99.90;;;;;;5030896;28;20050;-59
2022/03/30 03:28:15;;;;;;;50.38;28.65;;;5.00;99.90;;;;;;5024124;28;20045;-59
2022/03/30 03:30:41;;;;;;;41.58;27.23;;;5.10;99.90;;;;;;5029440;28;20050;-60
2022/03/30 03:33:09;;;;;;;39.13;26.45;;;5.10;99.90;;;;;;5038522;28;20041;-59
2022/03/30 03:35:35;;;;;;;47.10;27.42;;;5.10;99.90;;;;;;5048583;28;20049;-59
2022/03/30 03:38:03;;;;;;;42.03;25.88;;;5.10;99.90;;;;;;5034388;28;20033;-59
2022/03/30 03:40:32;;;;;;;40.15;26.23;;;5.10;99.90;;;;;;5042047;28;20245;-60
2022/03/30 03:43:00;;;;;;;40.53;25.17;;;5.10;99.90;;;;;;5029332;28;20045;-60
2022/03/30 03:45:27;;;;;;;36.28;25.80;;;5.20;99.90;;;;;;5014180;28;20053;-60
2022/03/30 03:47:53;;;;;;;40.05;26.05;;;5.20;99.90;;;;;;5031161;28;20680;-60
2022/03/30 03:50:21;;;;;;;46.28;26.38;;;5.30;99.90;;;;;;5041188;28;20149;-61
2022/03/30 03:52:48;;;;;;;34.25;23.45;;;5.20;99.90;;;;;;5027003;28;20075;-60
2022/03/30 03:55:14;;;;;;;40.20;24.08;;;5.30;99.90;;;;;;5037147;28;20055;-60
2022/03/30 03:57:41;;;;;;;38.17;24.58;;;5.30;99.90;;;;;;5042650;28;20400;-58
2022/03/30 04:00:10;;;;;;;42.20;27.08;;;5.30;99.90;;;;;;5062725;28;20495;-58
2022/03/30 04:02:40;;;;;;;43.17;25.30;;;5.30;99.90;;;;;;5039445;28;20119;-58
2022/03/30 04:05:08;;;;;;;38.38;23.23;;;5.40;99.90;;;;;;5043867;28;20033;-58
2022/03/30 04:07:36;;;;;;;37.85;23.63;;;5.30;99.90;;;;;;5030305;28;20408;-58
2022/03/30 04:10:03;;;;;;;42.00;23.95;;;5.30;99.90;;;;;;5044692;28;20111;-58
2022/03/30 04:12:29;;;;;;;39.17;23.35;;;5.30;99.90;;;;;;5035988;28;20630;-58
2022/03/30 04:14:55;;;;;;;40.03;23.42;;;5.30;99.90;;;;;;5048926;28;20045;-60
2022/03/30 04:17:21;;;;;;;36.85;23.45;;;5.30;99.90;;;;;;5044205;28;20415;-60
2022/03/30 04:19:47;;;;;;;40.28;23.80;;;5.30;99.90;;;;;;5025105;28;20053;-60
2022/03/30 04:22:14;;;;;;;32.55;22.70;;;5.30;99.90;;;;;;5045643;28;20044;-61
2022/03/30 04:24:41;;;;;;;40.55;23.42;;;5.20;99.90;;;;;;5034804;28;20045;-60
2022/03/30 04:27:07;;;;;;;41.03;23.02;;;5.30;99.90;;;;;;5033209;28;20572;-60
2022/03/30 04:29:33;;;;;;;35.47;22.02;;;5.30;99.90;;;;;;5046539;28;20136;-60
2022/03/30 04:31:59;;;;;;;35.22;22.33;;;5.30;99.90;;;;;;5076289;28;20055;-60
2022/03/30 04:34:25;;;;;;;37.53;21.60;;;5.40;99.90;;;;;;5079452;28;20098;-61
2022/03/30 04:36:51;;;;;;;38.38;20.95;;;5.30;99.90;;;;;;5064049;28;20052;-60
2022/03/30 04:39:17;;;;;;;36.17;22.35;;;5.30;99.90;;;;;;5044742;28;20083;-60
2022/03/30 04:41:43;;;;;;;39.55;20.70;;;5.30;99.90;;;;;;5044566;28;20049;-61
2022/03/30 04:44:09;;;;;;;40.58;21.75;;;5.40;99.90;;;;;;5036384;28;20135;-60
2022/03/30 04:46:35;;;;;;;35.10;21.60;;;5.30;99.90;;;;;;5017048;28;20055;-60
2022/03/30 04:49:01;;;;;;;30.67;19.85;;;5.40;99.90;;;;;;5046085;28;20719;-60
2022/03/30 04:51:29;;;;;;;37.05;21.25;;;5.40;99.90;;;;;;5054010;28;20041;-60
2022/03/30 04:53:55;;;;;;;31.95;19.75;;;5.40;99.90;;;;;;5055469;28;20051;-58
2022/03/30 04:56:21;;;;;;;34.97;20.27;;;5.40;99.90;;;;;;5046911;28;20049;-58
2022/03/30 04:58:49;;;;;;;38.47;21.60;;;5.50;99.90;;;;;;5035617;28;20064;-58
2022/03/30 05:01:16;;;;;;;36.30;20.92;;;5.50;99.90;;;;;;5036148;28;20367;-58
2022/03/30 05:03:42;;;;;;;37.83;19.40;;;5.50;99.90;;;;;;5044515;28;20105;-58
2022/03/30 05:06:08;;;;;;;40.10;20.50;;;5.50;99.90;;;;;;5050462;28;20404;-57
2022/03/30 05:08:34;;;;;;;30.50;19.88;;;5.50;99.90;;;;;;5036570;28;20131;-56
2022/03/30 05:11:00;;;;;;;36.80;19.33;;;5.50;99.90;;;;;;5035049;28;20044;-58
2022/03/30 05:13:26;;;;;;;32.65;19.90;;;5.50;99.90;;;;;;5051793;28;20056;-60
2022/03/30 05:15:52;;;;;;;32.35;18.88;;;5.60;99.90;;;;;;5064006;28;20050;-58
2022/03/30 05:18:18;;;;;;;35.03;20.20;;;5.60;99.90;;;;;;5049658;28;20488;-59
2022/03/30 05:20:46;;;;;;;29.55;18.13;;;5.60;99.90;;;;;;5026017;28;20049;-59
2022/03/30 05:23:12;;;;;;;32.30;19.75;;;5.60;99.90;;;;;;5024425;28;20053;-58
2022/03/30 05:25:38;;;;;;;34.88;18.58;;;5.70;99.90;;;;;;5039198;28;20057;-59
2022/03/30 05:28:05;;;;;;;26.90;17.73;;;5.70;99.90;;;;;;5033419;28;20451;-59
2022/03/30 05:30:31;;;;;;;26.23;15.77;;;5.70;99.90;;;;;;5025748;28;20433;-59
2022/03/30 05:32:57;;;;;;;27.27;16.05;;;5.70;99.90;;;;;;5041263;28;20082;-59
2022/03/30 05:35:23;;;;;;;21.23;13.65;;;5.60;99.90;;;;;;5039026;28;20048;-59
2022/03/30 05:37:49;;;;;;;23.30;13.27;;;5.70;99.90;;;;;;5036590;28;20079;-60
2022/03/30 05:40:16;;;;;;;18.70;11.60;;;5.70;99.90;;;;;;5039289;28;20048;-59
2022/03/30 05:42:43;;;;;;;17.40;8.85;;;5.70;99.90;;;;;;5011784;28;20103;-59
2022/03/30 05:45:09;;;;;;;9.48;6.10;;;5.70;99.90;;;;;;5039018;28;20456;-58
2022/03/30 05:47:37;;;;;;;9.40;5.80;;;5.80;99.90;;;;;;5040801;28;20118;-59
2022/03/30 05:50:03;;;;;;;8.27;5.18;;;5.80;99.90;;;;;;5040871;28;20072;-59
2022/03/30 05:52:29;;;;;;;7.65;4.43;;;5.80;99.90;;;;;;5048014;28;20134;-59
2022/03/30 05:54:56;;;;;;;9.90;4.80;;;5.90;99.90;;;;;;5039917;28;20045;-59
2022/03/30 05:57:23;;;;;;;5.20;3.85;;;5.90;99.90;;;;;;5032883;28;20037;-59
2022/03/30 05:59:49;;;;;;;5.03;3.78;;;5.90;99.90;;;;;;5042271;28;20056;-60
2022/03/30 06:02:16;;;;;;;4.53;3.35;;;5.90;99.90;;;;;;5043960;28;20088;-59
2022/03/30 06:04:43;;;;;;;7.38;4.35;;;6.00;99.90;;;;;;5037779;28;20053;-59
2022/03/30 06:07:10;;;;;;;8.20;4.82;;;6.00;99.90;;;;;;5041428;28;20045;-59
2022/03/30 06:09:36;;;;;;;5.15;4.03;;;6.00;99.90;;;;;;5032878;28;20122;-59
2022/03/30 06:12:06;;;;;;;4.53;3.05;;;6.00;99.90;;;;;;5046855;28;20056;-60
2022/03/30 06:14:33;;;;;;;4.28;3.10;;;6.00;99.90;;;;;;5052630;28;20089;-59
2022/03/30 06:17:03;;;;;;;5.50;3.45;;;6.00;99.90;;;;;;5028404;28;20050;-59
2022/03/30 06:19:31;;;;;;;9.43;6.28;;;5.90;99.90;;;;;;5035744;28;20061;-59
2022/03/30 06:21:57;;;;;;;4.63;3.40;;;6.00;99.90;;;;;;5040553;28;20126;-60
2022/03/30 06:24:24;;;;;;;5.47;3.72;;;6.00;99.90;;;;;;5040913;28;20178;-59
2022/03/30 06:26:51;;;;;;;4.80;3.58;;;6.00;99.90;;;;;;5030783;28;20056;-59
2022/03/30 06:29:18;;;;;;;6.30;4.72;;;6.10;99.90;;;;;;5032182;28;20432;-59
2022/03/30 06:31:44;;;;;;;4.03;3.15;;;6.20;99.90;;;;;;5039692;28;20052;-59
2022/03/30 06:34:10;;;;;;;6.75;3.55;;;6.20;99.90;;;;;;5049251;28;20398;-60
2022/03/30 06:36:38;;;;;;;4.90;3.22;;;6.20;99.90;;;;;;5033467;28;20052;-59
2022/03/30 06:39:05;;;;;;;7.65;3.60;;;6.20;99.90;;;;;;5049452;28;20091;-59
2022/03/30 06:41:31;;;;;;;3.63;2.63;;;6.20;99.90;;;;;;5057346;28;20431;-59
2022/03/30 06:43:57;;;;;;;5.75;2.90;;;6.30;99.90;;;;;;5024709;28;20511;-60
2022/03/30 06:46:23;;;;;;;6.82;3.97;;;6.40;99.90;;;;;;5032539;28;20045;-59
2022/03/30 06:48:49;;;;;;;3.83;2.80;;;6.50;99.90;;;;;;5021591;28;20041;-60
2022/03/30 06:51:16;;;;;;;6.63;5.13;;;6.50;99.90;;;;;;5038890;28;20124;-59
2022/03/30 06:53:42;;;;;;;6.68;3.88;;;6.80;99.90;;;;;;5025249;28;20072;-59
2022/03/30 06:56:09;;;;;;;3.25;2.30;;;6.90;99.90;;;;;;5027270;28;20579;-59
2022/03/30 06:58:37;;;;;;;5.38;3.75;;;7.10;99.90;;;;;;5041189;28;20048;-58
2022/03/30 07:01:03;;;;;;;2.47;1.80;;;7.30;99.90;;;;;;5038583;28;20049;-62
2022/03/30 07:03:29;;;;;;;2.83;2.13;;;7.40;99.90;;;;;;5042750;28;20063;-62
2022/03/30 07:05:56;;;;;;;3.95;2.92;;;7.50;99.90;;;;;;5024611;28;20045;-61
2022/03/30 07:11:08;;;;;;;6.72;4.40;;;7.60;99.90;;;;;;5039531;28;20045;-62
2022/03/30 07:13:34;;;;;;;6.20;4.78;;;7.50;99.90;;;;;;5006997;28;20056;-62
2022/03/30 07:16:00;;;;;;;4.13;3.03;;;7.50;99.90;;;;;;5038509;28;20186;-62
2022/03/30 07:18:27;;;;;;;14.55;11.18;;;7.70;99.90;;;;;;5054102;28;20053;-62
2022/03/30 07:20:53;;;;;;;4.20;2.70;;;7.80;99.90;;;;;;5039178;28;20559;-61
2022/03/30 07:23:20;;;;;;;8.05;6.07;;;7.90;99.90;;;;;;5039691;28;20090;-61
2022/03/30 07:25:46;;;;;;;6.20;4.43;;;7.90;99.90;;;;;;5042925;28;20045;-61
2022/03/30 07:28:15;;;;;;;5.72;3.85;;;8.00;99.90;;;;;;5060888;28;20127;-62
2022/03/30 07:30:44;;;;;;;4.80;3.13;;;8.00;99.90;;;;;;5042780;28;20052;-61
2022/03/30 07:33:11;;;;;;;4.85;3.30;;;8.10;99.90;;;;;;5043270;28;20045;-62
2022/03/30 07:35:39;;;;;;;2.25;1.80;;;8.20;99.90;;;;;;5042825;28;20099;-61
2022/03/30 07:38:05;;;;;;;7.65;6.15;;;8.20;99.90;;;;;;5027560;28;20049;-59
2022/03/30 07:40:32;;;;;;;2.53;1.70;;;8.30;99.90;;;;;;5045185;28;20091;-59
2022/03/30 07:42:58;;;;;;;6.53;4.35;;;8.30;99.90;;;;;;5043271;28;20049;-59
2022/03/30 07:45:25;;;;;;;4.93;2.20;;;8.40;99.90;;;;;;5042284;28;20040;-59
2022/03/30 07:47:52;;;;;;;2.85;1.80;;;8.60;99.90;;;;;;5042696;28;20408;-58
2022/03/30 07:50:18;;;;;;;8.48;5.03;;;8.80;99.90;;;;;;5042628;28;20041;-59
2022/03/30 07:52:45;;;;;;;9.07;4.82;;;8.70;99.90;;;;;;5044027;28;20040;-59
2022/03/30 07:55:12;;;;;;;3.47;2.42;;;8.90;99.90;;;;;;5044245;28;20051;-58
2022/03/30 07:57:42;;;;;;;7.65;5.75;;;8.70;99.90;;;;;;5045362;28;20142;-59
2022/03/30 08:00:11;;;;;;;5.68;3.03;;;8.70;99.90;;;;;;5043607;28;20060;-58
2022/03/30 08:02:38;;;;;;;6.85;4.10;;;8.80;99.90;;;;;;5042798;28;20064;-59
2022/03/30 08:05:05;;;;;;;6.00;4.38;;;8.80;99.90;;;;;;5045056;28;20053;-56
2022/03/30 08:07:31;;;;;;;6.53;3.90;;;8.70;99.90;;;;;;5042450;28;20044;-56
2022/03/30 08:09:58;;;;;;;7.45;3.85;;;8.70;99.90;;;;;;5042606;28;20041;-57
2022/03/30 08:12:25;;;;;;;9.00;6.80;;;8.60;99.90;;;;;;5042146;28;20516;-57
2022/03/30 08:14:52;;;;;;;5.90;4.03;;;8.30;99.90;;;;;;5042147;28;20498;-57
2022/03/30 08:17:18;;;;;;;5.38;3.67;;;8.30;99.90;;;;;;5043839;28;20056;-59
2022/03/30 08:19:44;;;;;;;9.20;6.50;;;8.40;99.90;;;;;;5060651;28;20131;-60
2022/03/30 08:22:26;;;;;;;8.68;5.90;;;8.70;99.90;;;;;;5059198;28;20405;-58
2022/03/30 08:25:07;;;;;;;13.45;8.00;;;8.60;99.90;;;;;;5026488;28;20057;-57
2022/03/30 08:27:35;;;;;;;13.55;11.55;;;8.70;99.90;;;;;;5043531;28;20145;-57
2022/03/30 08:30:01;;;;;;;6.13;5.05;;;8.80;99.90;;;;;;5042175;28;20442;-57
2022/03/30 08:32:28;;;;;;;7.72;6.28;;;8.90;99.90;;;;;;5043136;28;20460;-57
2022/03/30 08:34:55;;;;;;;10.52;7.07;;;9.10;99.90;;;;;;5043179;28;20148;-58
2022/03/30 08:37:22;;;;;;;9.30;5.70;;;9.30;99.90;;;;;;5043901;28;20044;-58
2022/03/30 08:39:49;;;;;;;11.25;6.97;;;9.30;99.90;;;;;;5043185;28;20052;-58
2022/03/30 08:42:17;;;;;;;6.40;4.78;;;9.40;99.90;;;;;;5042780;28;20437;-58
2022/03/30 08:44:46;;;;;;;8.00;5.15;;;9.20;99.90;;;;;;5041567;28;20102;-58
2022/03/30 08:47:13;;;;;;;6.10;4.10;;;9.20;99.90;;;;;;5041850;28;20044;-57
2022/03/30 08:49:39;;;;;;;7.00;4.25;;;9.20;99.90;;;;;;5024733;28;20037;-58
2022/03/30 08:52:08;;;;;;;4.80;4.20;;;9.30;99.90;;;;;;5044043;28;20492;-57
2022/03/30 08:54:35;;;;;;;7.28;4.90;;;9.40;99.90;;;;;;5044251;28;20045;-60
2022/03/30 08:57:02;;;;;;;9.15;6.82;;;9.60;99.90;;;;;;5044741;28;20048;-60
2022/03/30 08:59:28;;;;;;;9.02;6.03;;;10.00;99.90;;;;;;5041638;28;20052;-60
2022/03/30 09:01:57;;;;;;;6.88;3.83;;;10.20;99.90;;;;;;5045794;28;20443;-60
2022/03/30 09:04:25;;;;;;;9.68;6.28;;;10.30;99.90;;;;;;5045211;28;20049;-60
2022/03/30 09:06:57;;;;;;;7.05;4.75;;;10.30;99.90;;;;;;5040801;28;20053;-60
2022/03/30 09:09:41;;;;;;;6.50;4.22;;;10.50;99.90;;;;;;5043702;28;20246;-60
2022/03/30 09:12:10;;;;;;;10.25;7.75;;;10.50;99.90;;;;;;5022787;28;20059;-60
2022/03/30 09:14:39;;;;;;;12.40;5.78;;;10.40;99.90;;;;;;5042989;28;20362;-60
2022/03/30 09:17:08;;;;;;;9.20;7.20;;;10.10;99.90;;;;;;5041740;28;20128;-60
2022/03/30 09:19:36;;;;;;;9.52;6.50;;;10.00;99.90;;;;;;5043245;28;20512;-60
2022/03/30 09:22:04;;;;;;;7.65;4.40;;;9.90;99.90;;;;;;5042899;28;21056;-60
2022/03/30 09:24:36;;;;;;;7.72;3.58;;;10.00;99.90;;;;;;5043152;28;20139;-60
2022/03/30 09:27:06;;;;;;;4.57;2.90;;;10.10;99.90;;;;;;5025011;28;20056;-60
2022/03/30 09:29:34;;;;;;;3.67;2.42;;;10.20;99.90;;;;;;5044248;28;20450;-60
2022/03/30 09:32:07;;;;;;;6.03;2.92;;;10.60;99.90;;;;;;5043533;28;20041;-60
2022/03/30 09:34:36;;;;;;;7.40;3.03;;;10.60;99.90;;;;;;5056262;28;20547;-60
2022/03/30 09:37:10;;;;;;;6.45;3.70;;;10.70;99.90;;;;;;5043211;28;20102;-60
2022/03/30 09:39:38;;;;;;;6.65;2.42;;;10.80;99.90;;;;;;5044518;28;20120;-60
2022/03/30 09:42:08;;;;;;;7.63;2.88;;;11.00;99.90;;;;;;5043441;28;20405;-58
2022/03/30 09:44:51;;;;;;;5.13;2.38;;;11.20;99.90;;;;;;5043148;28;20055;-59
2022/03/30 09:47:19;;;;;;;8.73;4.10;;;11.10;99.90;;;;;;5045877;28;20054;-59
2022/03/30 09:49:48;;;;;;;8.23;2.95;;;11.30;99.90;;;;;;5045378;28;20491;-59
2022/03/30 09:52:30;;;;;;;6.57;4.03;;;11.20;99.90;;;;;;5045150;28;20085;-57
2022/03/30 09:55:00;;;;;;;8.52;3.55;;;11.30;99.90;;;;;;5044147;28;20057;-59
2022/03/30 09:57:31;;;;;;;8.52;2.80;;;11.00;99.90;;;;;;5030388;28;20488;-59
2022/03/30 10:00:09;;;;;;;7.97;2.35;;;10.80;99.90;;;;;;5046409;28;20454;-59
2022/03/30 10:02:41;;;;;;;6.38;2.65;;;10.30;99.90;;;;;;5045414;28;20052;-59
2022/03/30 10:05:12;;;;;;;5.60;1.70;;;10.40;99.90;;;;;;5062604;28;20037;-59
2022/03/30 10:07:39;;;;;;;7.25;2.78;;;10.30;99.90;;;;;;5062591;28;20057;-59
2022/03/30 10:10:08;;;;;;;5.57;1.52;;;10.20;99.90;;;;;;5046088;28;20131;-59
2022/03/30 10:12:35;;;;;;;8.15;1.98;;;10.30;99.90;;;;;;5046745;28;20055;-59
2022/03/30 10:15:02;;;;;;;6.10;2.03;;;10.40;99.90;;;;;;5027647;28;20052;-56
2022/03/30 10:17:29;;;;;;;7.50;2.40;;;10.50;99.90;;;;;;5059773;28;20049;-58
2022/03/30 10:19:58;;;;;;;3.78;1.30;;;10.40;99.90;;;;;;5047466;28;20312;-59
2022/03/30 10:22:43;;;;;;;6.85;1.58;;;10.40;99.90;;;;;;5045595;28;20512;-61
2022/03/30 10:25:18;;;;;;;3.95;2.17;;;10.40;99.90;;;;;;5043601;28;20048;-58
2022/03/30 10:28:08;;;;;;;5.00;2.00;;;10.60;99.90;;;;;;5042818;28;20072;-58
2022/03/30 10:30:35;;;;;;;4.25;1.45;;;10.90;99.90;;;;;;5044734;28;20057;-58
2022/03/30 10:33:03;;;;;;;5.50;1.98;;;11.30;99.90;;;;;;5058920;28;20052;-58
2022/03/30 10:35:42;;;;;;;7.85;1.83;;;11.40;99.90;;;;;;5044490;28;20137;-58
2022/03/30 10:38:09;;;;;;;5.18;1.38;;;11.80;99.90;;;;;;5044973;28;20057;-58
2022/03/30 10:40:36;;;;;;;5.97;2.05;;;12.20;99.90;;;;;;5042347;28;20056;-58
2022/03/30 10:43:23;;;;;;;4.57;1.67;;;12.60;99.90;;;;;;5040392;28;20052;-54
2022/03/30 10:45:59;;;;;;;9.10;6.13;;;12.40;99.90;;;;;;5041044;28;20045;-55
2022/03/30 10:48:28;;;;;;;8.73;4.30;;;12.80;99.90;;;;;;5040018;28;20107;-56
2022/03/30 10:50:58;;;;;;;7.18;3.28;;;12.70;99.90;;;;;;5037644;28;20475;-56
2022/03/30 10:53:38;;;;;;;8.55;4.40;;;12.80;99.90;;;;;;5035214;28;20040;-56
2022/03/30 10:56:07;;;;;;;8.55;3.95;;;12.40;99.90;;;;;;5039840;28;20512;-55
2022/03/30 10:58:34;;;;;;;7.20;2.70;;;12.10;99.90;;;;;;5039871;28;20136;-56
2022/03/30 11:01:27;;;;;;;3.63;1.50;;;12.00;99.90;;;;;;5027035;28;20130;-56
2022/03/30 11:04:05;;;;;;;4.57;2.45;;;12.20;99.90;;;;;;5043373;28;20524;-55
2022/03/30 11:06:43;;;;;;;6.93;1.80;;;12.40;99.90;;;;;;5045981;28;20048;-55
2022/03/30 11:09:30;;;;;;;5.20;1.13;;;11.90;99.90;;;;;;5042207;28;20446;-55
2022/03/30 11:12:02;;;;;;;4.50;1.48;;;12.00;99.90;;;;;;5044312;28;20106;-56
2022/03/30 11:14:37;;;;;;;4.00;1.38;;;11.70;99.90;;;;;;5039720;28;20400;-56
2022/03/30 11:17:05;;;;;;;7.60;3.90;;;11.80;99.90;;;;;;5044420;28;20067;-56
2022/03/30 11:19:46;;;;;;;5.60;1.20;;;11.60;99.90;;;;;;5046042;28;20049;-55
2022/03/30 11:22:26;;;;;;;4.13;1.40;;;11.10;99.90;;;;;;5026897;28;20055;-57
2022/03/30 11:25:14;;;;;;;2.85;1.23;;;10.70;99.90;;;;;;5025683;28;20057;-56
2022/03/30 11:27:41;;;;;;;3.90;1.40;;;10.40;99.90;;;;;;5044409;28;20048;-58
2022/03/30 11:30:15;;;;;;;5.00;1.80;;;10.30;99.90;;;;;;5045411;28;20049;-56
2022/03/30 11:32:51;;;;;;;4.95;2.40;;;10.40;99.90;;;;;;5043218;28;20416;-56
2022/03/30 11:35:20;;;;;;;4.97;1.63;;;10.40;99.90;;;;;;5044388;28;20813;-55
2022/03/30 11:37:49;;;;;;;2.22;1.35;;;10.60;99.90;;;;;;5025907;28;20045;-57
2022/03/30 11:40:18;;;;;;;4.38;1.40;;;10.70;99.90;;;;;;5043404;28;20498;-57
2022/03/30 11:42:47;;;;;;;5.32;2.38;;;10.80;99.90;;;;;;5042709;28;20055;-56
2022/03/30 11:45:21;;;;;;;5.20;1.90;;;11.00;99.90;;;;;;5045353;28;20059;-58
2022/03/30 11:47:54;;;;;;;5.60;2.05;;;10.90;99.90;;;;;;5046701;28;20461;-54
2022/03/30 11:50:41;;;;;;;4.40;1.73;;;11.00;99.90;;;;;;5042556;28;20132;-56
2022/03/30 11:53:11;;;;;;;4.93;1.38;;;11.20;99.90;;;;;;5045991;28;20044;-54
2022/03/30 11:56:06;;;;;;;3.97;1.50;;;11.30;99.90;;;;;;5055957;28;20068;-59
2022/03/30 11:58:37;;;;;;;3.55;1.25;;;11.60;99.10;;;;;;5041888;28;20618;-56
2022/03/30 12:01:06;;;;;;;7.00;2.05;;;11.70;98.20;;;;;;5006912;28;20052;-56
2022/03/30 12:03:34;;;;;;;5.47;1.60;;;11.80;95.90;;;;;;5010136;28;20428;-56
2022/03/30 12:06:03;;;;;;;4.13;1.67;;;11.60;93.00;;;;;;5060457;28;20094;-56
2022/03/30 12:08:43;;;;;;;2.95;1.50;;;11.50;87.60;;;;;;5045579;28;20045;-56
2022/03/30 12:11:09;;;;;;;5.25;2.17;;;11.60;81.90;;;;;;5042981;28;20047;-57
2022/03/30 12:13:35;;;;;;;3.58;1.40;;;11.40;78.70;;;;;;5026083;28;20155;-56
2022/03/30 12:16:03;;;;;;;2.47;1.30;;;11.60;76.30;;;;;;5044246;28;20564;-56
2022/03/30 12:18:30;;;;;;;3.45;1.35;;;11.60;70.20;;;;;;5025682;28;20072;-59
2022/03/30 12:21:00;;;;;;;10.35;6.32;;;11.50;68.40;;;;;;5043022;28;20462;-57
2022/03/30 12:23:27;;;;;;;4.32;1.50;;;11.40;69.80;;;;;;5043513;28;20200;-57
2022/03/30 12:25:53;;;;;;;3.83;1.45;;;11.40;71.90;;;;;;5042023;28;20095;-55
2022/03/30 12:28:30;;;;;;;5.30;3.30;;;11.20;71.60;;;;;;5025816;28;20563;-56
2022/03/30 12:30:56;;;;;;;11.75;6.68;;;11.10;71.10;;;;;;5057448;28;20049;-58
2022/03/30 12:33:22;;;;;;;5.15;2.72;;;10.90;72.90;;;;;;5045918;28;20049;-55
2022/03/30 12:35:52;;;;;;;5.22;3.65;;;10.80;69.70;;;;;;5041865;28;20083;-53
2022/03/30 12:38:21;;;;;;;8.23;6.00;;;10.60;72.20;;;;;;5044061;28;20048;-58
2022/03/30 12:40:53;;;;;;;3.53;1.63;;;10.70;69.80;;;;;;5028900;28;20041;-58
2022/03/30 12:43:29;;;;;;;4.05;1.88;;;10.60;73.20;;;;;;5043540;28;20037;-56
2022/03/30 12:45:57;;;;;;;6.63;2.60;;;10.50;75.00;;;;;;5043482;28;20120;-56
2022/03/30 12:48:28;;;;;;;6.75;2.60;;;10.70;75.60;;;;;;5041950;28;20049;-55
2022/03/30 12:50:58;;;;;;;6.50;3.40;;;10.70;71.60;;;;;;5027792;28;20488;-58
2022/03/30 12:53:34;;;;;;;3.10;1.33;;;10.60;69.40;;;;;;5043941;28;20464;-58
2022/03/30 12:56:18;;;;;;;5.75;2.38;;;10.60;72.40;;;;;;5048123;28;20374;-58
2022/03/30 12:58:59;;;;;;;5.80;1.98;;;10.90;71.90;;;;;;5059788;28;20111;-56